Hartland, Wisconsin
Current Conditions -  °F | °C
As of 12:45 PM on Monday 22 Dec 2014 (Local Time) from KUES Reporting Station
Haze Haze  
Wind Chill: 27°   Ceiling: 1100
Heat Index: 36°   Visibility: 4mi
Dew Point: 30°   Wind: 14mph
Humidity: 81%   Direction: 110°ESE
Pressure: 29.8"   Gusts: NA
Location:  43.1°N, 88.35°W
Report Text: KUES 221845Z 11012KT 4SM BR BKN011 OVC034 02/M01 A2980
Loading
Personal Weather Stations






























Interactive Weather Map New forecast layout! Learn more

10-Day Weather Forecast

Advertisements
Track Severe Weather on mobile